Time;durP1;ratioP1;P1;durP2;ratioP2;P2;SDS_P1;SDS_P2;PMS_P1;PMS_P2;Temp;Humidity;BMP_temperature;BMP_pressure;BME280_temperature;BME280_humidity;BME280_pressure;Samples;Min_cycle;Max_cycle;Signal;HPM_P1;HPM_P2
2021/03/30 00:01:05;;;;;;;31.90;15.48;;;;;;;;;;5060833;28;20135;-79
2021/03/30 00:03:34;;;;;;;39.42;16.42;;;;;;;;;;5071269;28;20236;-79
2021/03/30 00:06:01;;;;;;;36.80;14.93;;;;;;;;;;5071387;28;20045;-79
2021/03/30 00:08:29;;;;;;;34.67;15.45;;;;;;;;;;5065288;28;20117;-79
2021/03/30 00:10:55;;;;;;;37.17;15.98;;;;;;;;;;5061061;28;20051;-79
2021/03/30 00:13:24;;;;;;;35.28;15.82;;;;;;;;;;5058150;28;20075;-79
2021/03/30 00:15:50;;;;;;;39.00;15.18;;;;;;;;;;5060178;28;20300;-79
2021/03/30 00:18:19;;;;;;;34.35;15.95;;;;;;;;;;5062467;28;20060;-79
2021/03/30 00:20:45;;;;;;;36.55;16.73;;;;;;;;;;5061466;28;20338;-79
2021/03/30 00:23:11;;;;;;;41.72;16.80;;;;;;;;;;5060877;28;20072;-79
2021/03/30 00:25:38;;;;;;;42.85;17.95;;;;;;;;;;5059877;28;20388;-79
2021/03/30 00:28:06;;;;;;;35.45;16.38;;;;;;;;;;5059220;28;20071;-79
2021/03/30 00:30:32;;;;;;;39.28;16.88;;;;;;;;;;5060727;28;20212;-79
2021/03/30 00:33:02;;;;;;;32.33;15.70;;;;;;;;;;5061212;28;20057;-79
2021/03/30 00:35:28;;;;;;;37.97;16.63;;;;;;;;;;5061374;28;20138;-78
2021/03/30 00:37:54;;;;;;;37.42;16.02;;;;;;;;;;5058382;28;20048;-78
2021/03/30 00:40:20;;;;;;;36.03;16.13;;;;;;;;;;5059188;28;20079;-78
2021/03/30 00:42:46;;;;;;;29.45;14.77;;;;;;;;;;5060665;28;20079;-78
2021/03/30 00:45:13;;;;;;;31.65;14.50;;;;;;;;;;5057268;28;20198;-78
2021/03/30 00:47:41;;;;;;;41.45;15.80;;;;;;;;;;5058725;28;20511;-78
2021/03/30 00:50:13;;;;;;;35.38;15.00;;;;;;;;;;5057975;28;20055;-78
2021/03/30 00:52:43;;;;;;;31.85;15.50;;;;;;;;;;5059159;28;20042;-78
2021/03/30 00:55:13;;;;;;;29.38;15.10;;;;;;;;;;5060654;28;20049;-79
2021/03/30 00:57:40;;;;;;;36.63;15.20;;;;;;;;;;5061831;28;20052;-79
2021/03/30 01:00:07;;;;;;;35.15;16.02;;;;;;;;;;5059362;28;20080;-79
2021/03/30 01:02:33;;;;;;;39.58;16.45;;;;;;;;;;5043135;28;20060;-79
2021/03/30 01:05:04;;;;;;;28.45;14.63;;;;;;;;;;5042760;28;20340;-79
2021/03/30 01:07:30;;;;;;;32.10;16.33;;;;;;;;;;5043043;28;20053;-79
2021/03/30 01:09:56;;;;;;;34.25;16.25;;;;;;;;;;5057407;28;20103;-81
2021/03/30 01:12:28;;;;;;;34.63;16.45;;;;;;;;;;5038525;28;20136;-81
2021/03/30 01:15:06;;;;;;;30.88;15.02;;;;;;;;;;5039553;28;20057;-81
2021/03/30 01:17:47;;;;;;;33.45;14.77;;;;;;;;;;5042843;28;20053;-81
2021/03/30 01:20:23;;;;;;;35.60;15.40;;;;;;;;;;5058746;28;20137;-82
2021/03/30 01:22:49;;;;;;;;;;;;;;;;;;5054104;28;20052;-82
2021/03/30 01:25:15;;;;;;;29.53;15.23;;;;;;;;;;5038625;28;20241;-82
2021/03/30 01:27:52;;;;;;;31.35;14.30;;;;;;;;;;5045900;28;20799;-82
2021/03/30 01:30:20;;;;;;;35.92;14.15;;;;;;;;;;5051256;28;20053;-81
2021/03/30 01:33:01;;;;;;;36.35;16.30;;;;;;;;;;5043437;28;20057;-82
2021/03/30 01:35:28;;;;;;;27.98;13.60;;;;;;;;;;5036942;28;20391;-82
2021/03/30 01:37:55;;;;;;;32.80;14.68;;;;;;;;;;5035644;28;20131;-81
2021/03/30 01:40:26;;;;;;;26.25;13.43;;;;;;;;;;5050158;28;20050;-82
2021/03/30 01:42:53;;;;;;;34.35;14.98;;;;;;;;;;5045603;28;20049;-82
2021/03/30 01:45:20;;;;;;;31.65;14.30;;;;;;;;;;5041491;28;20089;-82
2021/03/30 01:47:57;;;;;;;25.80;12.73;;;;;;;;;;5036936;28;20397;-80
2021/03/30 01:50:25;;;;;;;27.52;13.32;;;;;;;;;;5037973;28;20049;-80
2021/03/30 01:52:55;;;;;;;29.45;14.13;;;;;;;;;;5037635;28;20355;-80
2021/03/30 01:55:22;;;;;;;31.52;14.77;;;;;;;;;;5036450;28;20041;-80
2021/03/30 01:57:51;;;;;;;43.05;15.55;;;;;;;;;;5036472;28;20054;-80
2021/03/30 02:00:17;;;;;;;35.92;15.07;;;;;;;;;;5036956;28;20060;-80
2021/03/30 02:02:47;;;;;;;31.75;14.63;;;;;;;;;;5038220;28;20092;-80
2021/03/30 02:05:19;;;;;;;27.42;14.05;;;;;;;;;;5036916;28;20108;-80
2021/03/30 02:07:49;;;;;;;30.55;15.10;;;;;;;;;;5037235;28;20054;-80
2021/03/30 02:10:30;;;;;;;30.75;14.63;;;;;;;;;;5036048;28;20050;-80
2021/03/30 02:12:58;;;;;;;34.92;14.70;;;;;;;;;;5038295;28;20050;-80
2021/03/30 02:15:25;;;;;;;29.40;14.35;;;;;;;;;;5036766;28;20053;-80
2021/03/30 02:17:51;;;;;;;27.98;14.80;;;;;;;;;;5036706;28;20053;-80
2021/03/30 02:20:21;;;;;;;29.60;14.65;;;;;;;;;;5037717;28;20056;-80
2021/03/30 02:22:56;;;;;;;24.40;14.48;;;;;;;;;;5038056;28;20096;-80
2021/03/30 02:25:22;;;;;;;26.30;13.13;;;;;;;;;;5037314;28;20057;-80
2021/03/30 02:27:51;;;;;;;31.80;13.32;;;;;;;;;;5039915;28;20068;-80
2021/03/30 02:30:17;;;;;;;24.35;13.95;;;;;;;;;;5040790;28;20037;-80
2021/03/30 02:32:48;;;;;;;27.48;13.68;;;;;;;;;;5041930;28;20336;-80
2021/03/30 02:35:14;;;;;;;23.30;12.82;;;;;;;;;;5041689;28;20049;-80
2021/03/30 02:37:44;;;;;;;27.95;13.18;;;;;;;;;;5040143;28;20425;-80
2021/03/30 02:40:14;;;;;;;22.55;12.60;;;;;;;;;;5039846;28;20049;-80
2021/03/30 02:42:44;;;;;;;30.83;12.88;;;;;;;;;;5040936;28;20052;-80
2021/03/30 02:45:16;;;;;;;25.63;12.65;;;;;;;;;;5041934;28;20492;-81
2021/03/30 02:48:03;;;;;;;25.58;12.80;;;;;;;;;;5040640;28;20081;-81
2021/03/30 02:50:29;;;;;;;21.38;12.85;;;;;;;;;;5042004;28;20420;-80
2021/03/30 02:52:56;;;;;;;21.23;13.38;;;;;;;;;;5042386;28;20096;-81
2021/03/30 02:55:23;;;;;;;22.83;13.07;;;;;;;;;;5051878;28;20040;-80
2021/03/30 02:57:49;;;;;;;26.30;12.52;;;;;;;;;;5057858;28;20105;-80
2021/03/30 03:00:16;;;;;;;28.73;13.30;;;;;;;;;;5044439;28;20049;-80
2021/03/30 03:02:43;;;;;;;19.70;12.80;;;;;;;;;;5039911;28;20068;-80
2021/03/30 03:05:10;;;;;;;22.00;12.57;;;;;;;;;;5038817;28;20060;-80
2021/03/30 03:07:36;;;;;;;19.25;12.10;;;;;;;;;;5039376;28;20053;-80
2021/03/30 03:10:04;;;;;;;24.13;11.90;;;;;;;;;;5041057;28;20050;-82
2021/03/30 03:12:31;;;;;;;24.33;11.68;;;;;;;;;;5050109;28;20049;-80
2021/03/30 03:14:58;;;;;;;29.80;13.60;;;;;;;;;;5054058;28;20072;-80
2021/03/30 03:17:25;;;;;;;26.85;13.35;;;;;;;;;;5052306;28;20240;-80
2021/03/30 03:19:51;;;;;;;28.50;12.95;;;;;;;;;;5039325;28;20053;-80
2021/03/30 03:22:18;;;;;;;24.02;12.25;;;;;;;;;;5039255;28;20077;-81
2021/03/30 03:24:46;;;;;;;24.30;14.25;;;;;;;;;;5038978;28;20053;-80
2021/03/30 03:27:12;;;;;;;26.95;13.73;;;;;;;;;;5039854;28;20420;-80
2021/03/30 03:29:41;;;;;;;26.30;14.60;;;;;;;;;;5038565;28;20117;-80
2021/03/30 03:32:07;;;;;;;25.45;12.88;;;;;;;;;;5038660;28;20105;-80
2021/03/30 03:34:36;;;;;;;26.38;13.85;;;;;;;;;;5038633;28;20049;-81
2021/03/30 03:37:06;;;;;;;24.33;14.00;;;;;;;;;;5038781;28;20065;-81
2021/03/30 03:39:32;;;;;;;24.88;15.10;;;;;;;;;;5063688;28;20408;-81
2021/03/30 03:41:58;;;;;;;28.67;15.57;;;;;;;;;;5068711;28;20045;-81
2021/03/30 03:44:28;;;;;;;31.92;14.82;;;;;;;;;;5068075;28;20151;-81
2021/03/30 03:46:54;;;;;;;29.23;14.77;;;;;;;;;;5059063;28;20204;-81
2021/03/30 03:49:22;;;;;;;24.42;12.65;;;;;;;;;;5061367;28;20052;-81
2021/03/30 03:51:51;;;;;;;27.40;14.60;;;;;;;;;;5059459;28;20067;-81
2021/03/30 03:54:19;;;;;;;27.00;12.90;;;;;;;;;;5058205;28;20052;-81
2021/03/30 03:57:15;;;;;;;20.67;13.15;;;;;;;;;;5072298;28;20057;-81
2021/03/30 03:59:44;;;;;;;28.52;13.77;;;;;;;;;;5063471;28;20086;-81
2021/03/30 04:02:22;;;;;;;22.35;12.80;;;;;;;;;;5065555;28;20087;-81
2021/03/30 04:04:55;;;;;;;26.20;13.85;;;;;;;;;;5042839;28;20053;-80
2021/03/30 04:07:22;;;;;;;23.77;12.60;;;;;;;;;;5037687;28;20053;-80
2021/03/30 04:09:51;;;;;;;25.98;13.18;;;;;;;;;;5038045;28;20054;-81
2021/03/30 04:12:19;;;;;;;21.23;12.60;;;;;;;;;;5039174;28;20421;-81
2021/03/30 04:14:45;;;;;;;21.92;12.38;;;;;;;;;;5053497;28;20052;-81
2021/03/30 04:17:16;;;;;;;26.33;13.00;;;;;;;;;;5055878;28;20216;-81
2021/03/30 04:19:42;;;;;;;18.38;12.60;;;;;;;;;;5057635;28;20401;-81
2021/03/30 04:22:16;;;;;;;22.10;13.18;;;;;;;;;;5054575;28;20057;-81
2021/03/30 04:24:45;;;;;;;24.83;12.60;;;;;;;;;;5055114;28;20125;-80
2021/03/30 04:27:15;;;;;;;24.30;13.43;;;;;;;;;;5056491;28;20463;-80
2021/03/30 04:29:43;;;;;;;25.42;12.13;;;;;;;;;;5057521;28;20329;-80
2021/03/30 04:32:13;;;;;;;18.10;12.15;;;;;;;;;;5056494;28;20118;-80
2021/03/30 04:34:39;;;;;;;24.92;13.02;;;;;;;;;;5054920;28;20072;-80
2021/03/30 04:37:07;;;;;;;25.50;13.70;;;;;;;;;;5050672;28;20183;-80
2021/03/30 04:39:33;;;;;;;22.38;11.85;;;;;;;;;;5052233;28;20088;-80
2021/03/30 04:42:00;;;;;;;28.92;12.02;;;;;;;;;;5053347;28;20095;-80
2021/03/30 04:44:27;;;;;;;24.30;12.70;;;;;;;;;;5053067;28;20288;-80
2021/03/30 04:47:03;;;;;;;21.15;12.75;;;;;;;;;;5062912;28;20413;-80
2021/03/30 04:49:29;;;;;;;24.23;11.38;;;;;;;;;;5068489;28;20049;-80
2021/03/30 04:51:59;;;;;;;20.52;10.98;;;;;;;;;;5068825;28;20057;-81
2021/03/30 04:54:27;;;;;;;29.45;11.95;;;;;;;;;;5067171;28;20065;-81
2021/03/30 04:56:57;;;;;;;20.05;11.95;;;;;;;;;;5056329;28;20045;-81
2021/03/30 04:59:29;;;;;;;17.10;11.13;;;;;;;;;;5053258;28;20063;-81
2021/03/30 05:01:55;;;;;;;17.83;10.55;;;;;;;;;;5064216;28;20092;-80
2021/03/30 05:04:23;;;;;;;19.05;11.27;;;;;;;;;;5065349;28;20045;-81
2021/03/30 05:06:50;;;;;;;22.33;11.75;;;;;;;;;;5053672;28;20059;-80
2021/03/30 05:09:16;;;;;;;25.35;11.60;;;;;;;;;;5054141;28;20187;-82
2021/03/30 05:11:44;;;;;;;18.65;11.13;;;;;;;;;;5039974;28;20053;-82
2021/03/30 05:14:11;;;;;;;27.42;11.55;;;;;;;;;;5035981;28;20047;-80
2021/03/30 05:16:37;;;;;;;23.95;10.40;;;;;;;;;;5045310;28;20093;-80
2021/03/30 05:19:02;;;;;;;25.90;11.85;;;;;;;;;;5042696;28;20050;-80
2021/03/30 05:21:29;;;;;;;21.85;10.68;;;;;;;;;;5043115;28;20061;-83
2021/03/30 05:23:55;;;;;;;20.95;10.27;;;;;;;;;;5042192;28;20103;-82
2021/03/30 05:26:21;;;;;;;19.60;11.60;;;;;;;;;;5047435;28;20095;-82
2021/03/30 05:28:54;;;;;;;19.00;10.98;;;;;;;;;;5051608;28;20056;-82
2021/03/30 05:31:19;;;;;;;19.92;10.68;;;;;;;;;;5053584;28;20049;-82
2021/03/30 05:33:46;;;;;;;17.77;10.55;;;;;;;;;;5053625;28;20399;-82
2021/03/30 05:36:12;;;;;;;18.73;11.02;;;;;;;;;;5053462;28;20378;-81
2021/03/30 05:38:44;;;;;;;19.23;10.90;;;;;;;;;;5051622;28;20071;-81
2021/03/30 05:41:10;;;;;;;18.67;10.15;;;;;;;;;;5053445;28;20079;-81
2021/03/30 05:43:36;;;;;;;15.50;9.82;;;;;;;;;;5048522;28;20063;-82
2021/03/30 05:46:07;;;;;;;15.32;9.60;;;;;;;;;;5031369;28;20049;-82
2021/03/30 05:48:35;;;;;;;17.27;9.48;;;;;;;;;;5031056;28;20148;-83
2021/03/30 05:51:03;;;;;;;18.27;10.13;;;;;;;;;;5046139;28;20526;-82
2021/03/30 05:53:31;;;;;;;17.85;9.75;;;;;;;;;;5046766;28;20045;-82
2021/03/30 05:55:59;;;;;;;20.95;9.80;;;;;;;;;;5053956;28;20037;-80
2021/03/30 05:58:36;;;;;;;16.95;9.52;;;;;;;;;;5054447;28;20048;-81
2021/03/30 06:01:08;;;;;;;15.77;9.63;;;;;;;;;;5068039;28;20036;-79
2021/03/30 06:03:37;;;;;;;16.38;9.07;;;;;;;;;;5063233;28;20045;-81
2021/03/30 06:06:03;;;;;;;20.35;9.60;;;;;;;;;;5058173;28;20056;-81
2021/03/30 06:08:32;;;;;;;19.30;9.10;;;;;;;;;;5060490;28;20137;-81
2021/03/30 06:11:03;;;;;;;22.98;9.70;;;;;;;;;;5054701;28;20450;-81
2021/03/30 06:13:48;;;;;;;15.88;7.90;;;;;;;;;;5053707;28;20057;-81
2021/03/30 06:16:29;;;;;;;18.48;9.40;;;;;;;;;;5052862;28;20344;-82
2021/03/30 06:19:01;;;;;;;14.18;8.98;;;;;;;;;;5051490;28;20188;-82
2021/03/30 06:21:29;;;;;;;18.10;8.93;;;;;;;;;;5051865;28;20072;-82
2021/03/30 06:23:57;;;;;;;16.40;9.25;;;;;;;;;;5051604;28;20060;-83
2021/03/30 06:26:26;;;;;;;20.35;8.40;;;;;;;;;;5052473;28;20080;-82
2021/03/30 06:28:56;;;;;;;15.07;9.23;;;;;;;;;;5050139;28;20218;-83
2021/03/30 06:31:22;;;;;;;14.50;8.27;;;;;;;;;;5047208;28;20059;-82
2021/03/30 06:33:50;;;;;;;15.20;8.93;;;;;;;;;;5049921;28;20045;-83
2021/03/30 06:36:20;;;;;;;18.17;8.38;;;;;;;;;;5052388;28;20437;-83
2021/03/30 06:38:54;;;;;;;20.70;8.63;;;;;;;;;;5051260;28;20164;-83
2021/03/30 06:41:45;;;;;;;12.48;8.10;;;;;;;;;;5051568;28;20071;-82
2021/03/30 06:44:27;;;;;;;16.55;9.10;;;;;;;;;;5048504;28;20045;-83
2021/03/30 06:47:03;;;;;;;14.88;8.25;;;;;;;;;;5032771;28;20041;-83
2021/03/30 06:49:34;;;;;;;17.30;8.45;;;;;;;;;;5050353;28;20059;-83
2021/03/30 06:52:11;;;;;;;18.70;7.88;;;;;;;;;;5048932;28;20175;-83
2021/03/30 06:54:54;;;;;;;15.98;8.63;;;;;;;;;;5050211;28;20373;-83
2021/03/30 06:57:38;;;;;;;15.13;8.68;;;;;;;;;;5047944;28;20137;-84
2021/03/30 07:00:12;;;;;;;19.95;8.18;;;;;;;;;;5070221;28;20041;-83
2021/03/30 07:02:46;;;;;;;16.77;8.25;;;;;;;;;;5064021;28;20075;-82
2021/03/30 07:05:44;;;;;;;18.38;8.10;;;;;;;;;;5050122;28;20127;-83
2021/03/30 07:08:12;;;;;;;18.92;8.02;;;;;;;;;;5049293;28;20055;-83
2021/03/30 07:10:39;;;;;;;19.25;8.50;;;;;;;;;;5050920;28;20194;-82
2021/03/30 07:13:10;;;;;;;17.38;8.05;;;;;;;;;;5051953;28;20229;-83
2021/03/30 07:15:43;;;;;;;17.33;7.85;;;;;;;;;;5049678;28;20049;-83
2021/03/30 07:18:15;;;;;;;21.80;8.32;;;;;;;;;;5050352;28;20094;-82
2021/03/30 07:20:51;;;;;;;14.98;7.00;;;;;;;;;;5050987;28;20060;-82
2021/03/30 07:23:27;;;;;;;15.82;7.57;;;;;;;;;;5065611;28;20056;-83
2021/03/30 07:26:09;;;;;;;18.60;7.55;;;;;;;;;;5051533;28;20080;-83
2021/03/30 07:28:49;;;;;;;17.13;6.78;;;;;;;;;;5048719;28;20067;-83
2021/03/30 07:31:26;;;;;;;19.25;7.20;;;;;;;;;;5070264;28;20059;-84
2021/03/30 07:34:21;;;;;;;14.35;6.38;;;;;;;;;;5036396;28;20441;-84
2021/03/30 07:36:51;;;;;;;19.80;6.60;;;;;;;;;;5037754;28;20192;-84
2021/03/30 07:39:19;;;;;;;13.82;6.40;;;;;;;;;;5046294;28;20412;-84
2021/03/30 07:41:47;;;;;;;15.88;6.70;;;;;;;;;;5030591;28;20045;-84
2021/03/30 07:44:19;;;;;;;12.20;6.05;;;;;;;;;;5033758;28;20128;-84
2021/03/30 07:46:45;;;;;;;13.75;6.90;;;;;;;;;;5031614;28;20072;-84
2021/03/30 07:49:17;;;;;;;9.65;6.18;;;;;;;;;;5031009;28;20069;-84
2021/03/30 07:51:53;;;;;;;13.52;6.35;;;;;;;;;;5055337;28;20075;-83
2021/03/30 07:54:19;;;;;;;;;;;;;;;;;;5063243;28;20096;-83
2021/03/30 07:56:47;;;;;;;16.20;6.70;;;;;;;;;;5057257;28;19994;-84
2021/03/30 07:59:31;;;;;;;15.32;6.03;;;;;;;;;;5051766;28;20049;-84
2021/03/30 08:02:01;;;;;;;14.35;6.35;;;;;;;;;;5048673;28;20045;-83
2021/03/30 08:04:33;;;;;;;14.48;5.88;;;;;;;;;;5050304;28;20346;-84
2021/03/30 08:07:00;;;;;;;14.90;6.15;;;;;;;;;;5050571;28;20072;-83
2021/03/30 08:09:26;;;;;;;12.00;6.28;;;;;;;;;;5048310;28;20044;-83
2021/03/30 08:11:56;;;;;;;11.27;6.07;;;;;;;;;;5056721;28;20052;-84
2021/03/30 08:14:40;;;;;;;10.05;5.35;;;;;;;;;;5046162;28;20041;-84
2021/03/30 08:17:13;;;;;;;10.27;5.45;;;;;;;;;;5044381;28;20103;-83
2021/03/30 08:19:53;;;;;;;11.38;5.50;;;;;;;;;;5030520;28;20060;-84
2021/03/30 08:25:39;;;;;;;9.38;5.30;;;;;;;;;;5048432;28;20047;-84
2021/03/30 08:28:06;;;;;;;11.75;6.30;;;;;;;;;;5052259;28;20116;-84
2021/03/30 08:30:37;;;;;;;10.45;5.10;;;;;;;;;;5044177;28;20313;-84
2021/03/30 08:33:06;;;;;;;16.98;5.72;;;;;;;;;;5042711;28;20049;-85
2021/03/30 08:35:38;;;;;;;9.35;5.05;;;;;;;;;;5036193;28;20042;-83
2021/03/30 08:38:08;;;;;;;11.82;4.85;;;;;;;;;;5047261;28;20084;-84
2021/03/30 08:40:36;;;;;;;15.15;5.50;;;;;;;;;;5049228;28;20398;-84
2021/03/30 08:43:21;;;;;;;12.60;4.55;;;;;;;;;;5049186;28;20052;-83
2021/03/30 08:45:54;;;;;;;11.43;4.68;;;;;;;;;;5030346;28;20057;-83
2021/03/30 08:48:30;;;;;;;9.18;5.15;;;;;;;;;;5039588;28;20162;-83
2021/03/30 08:51:06;;;;;;;7.82;4.03;;;;;;;;;;5046410;28;20049;-84
2021/03/30 08:53:32;;;;;;;11.40;3.95;;;;;;;;;;5041548;28;20073;-84
2021/03/30 08:56:08;;;;;;;11.68;3.80;;;;;;;;;;5027945;28;20057;-83
2021/03/30 08:58:36;;;;;;;21.00;5.18;;;;;;;;;;5048492;28;20072;-84
2021/03/30 09:01:07;;;;;;;10.32;3.88;;;;;;;;;;5048185;28;20477;-84
2021/03/30 09:03:36;;;;;;;11.05;3.38;;;;;;;;;;5048355;28;20606;-84
2021/03/30 09:06:03;;;;;;;9.43;3.72;;;;;;;;;;5043221;28;20075;-83
2021/03/30 09:08:41;;;;;;;6.45;3.13;;;;;;;;;;5049922;28;20106;-83
2021/03/30 09:11:24;;;;;;;7.25;3.13;;;;;;;;;;5055382;28;20044;-83
2021/03/30 09:13:56;;;;;;;6.15;3.25;;;;;;;;;;5064668;28;20056;-84
2021/03/30 09:16:36;;;;;;;6.10;3.17;;;;;;;;;;5048232;28;20068;-83
2021/03/30 09:19:32;;;;;;;6.70;3.17;;;;;;;;;;5064964;28;20049;-84
2021/03/30 09:22:06;;;;;;;9.38;3.40;;;;;;;;;;5047327;28;20124;-84
2021/03/30 09:27:06;;;;;;;6.85;3.90;;;;;;;;;;5026295;28;20049;-84
2021/03/30 09:29:40;;;;;;;11.75;3.20;;;;;;;;;;5040246;28;20048;-84
2021/03/30 09:32:07;;;;;;;14.00;3.40;;;;;;;;;;5024777;28;20060;-84
2021/03/30 09:34:39;;;;;;;8.50;3.30;;;;;;;;;;5041913;28;20056;-84
2021/03/30 09:37:05;;;;;;;14.25;3.42;;;;;;;;;;5052999;28;20103;-84
2021/03/30 09:39:36;;;;;;;10.57;3.53;;;;;;;;;;5045472;28;20053;-84
2021/03/30 09:42:03;;;;;;;6.00;3.65;;;;;;;;;;5026517;28;20244;-84
2021/03/30 09:44:33;;;;;;;11.10;3.88;;;;;;;;;;5042168;28;20315;-83
2021/03/30 09:47:11;;;;;;;7.22;2.90;;;;;;;;;;5045074;28;20363;-84
2021/03/30 09:49:38;;;;;;;10.23;3.13;;;;;;;;;;5046094;28;20235;-84
2021/03/30 09:52:05;;;;;;;8.55;3.30;;;;;;;;;;5034826;28;20077;-83
2021/03/30 09:54:42;;;;;;;8.23;3.10;;;;;;;;;;5040692;28;20045;-84
2021/03/30 09:57:21;;;;;;;8.57;3.35;;;;;;;;;;5046577;28;20305;-84
2021/03/30 09:59:50;;;;;;;10.50;3.85;;;;;;;;;;5032090;28;20104;-84
2021/03/30 10:02:16;;;;;;;9.75;3.40;;;;;;;;;;5055937;28;20041;-83
2021/03/30 10:04:42;;;;;;;9.93;3.10;;;;;;;;;;5057624;28;20041;-84
2021/03/30 10:07:20;;;;;;;9.00;2.83;;;;;;;;;;5054172;28;20049;-84
2021/03/30 10:10:04;;;;;;;8.00;3.28;;;;;;;;;;5045785;28;20061;-82
2021/03/30 10:12:34;;;;;;;11.88;3.45;;;;;;;;;;5047258;28;20229;-83
2021/03/30 10:15:01;;;;;;;7.00;3.10;;;;;;;;;;5044539;28;20049;-82
2021/03/30 10:17:29;;;;;;;9.05;3.10;;;;;;;;;;5046103;28;20045;-83
2021/03/30 10:19:58;;;;;;;10.10;3.25;;;;;;;;;;5047565;28;20079;-83
2021/03/30 10:22:34;;;;;;;13.55;3.88;;;;;;;;;;5044603;28;20401;-83
2021/03/30 10:25:15;;;;;;;10.13;3.90;;;;;;;;;;5046412;28;20423;-82
2021/03/30 10:27:51;;;;;;;8.75;4.00;;;;;;;;;;5046189;28;20161;-83
2021/03/30 10:30:20;;;;;;;9.40;3.20;;;;;;;;;;5043972;28;20541;-84
2021/03/30 10:32:53;;;;;;;10.48;3.90;;;;;;;;;;5045578;28;20071;-83
2021/03/30 10:35:25;;;;;;;9.75;3.35;;;;;;;;;;5047337;28;20049;-83
2021/03/30 10:37:51;;;;;;;9.50;3.53;;;;;;;;;;5049824;28;20284;-83
2021/03/30 10:40:26;;;;;;;;;;;;;;;;;;5050916;28;20071;-84
2021/03/30 10:42:55;;;;;;;9.70;3.30;;;;;;;;;;5049920;28;20065;-83
2021/03/30 10:45:28;;;;;;;6.63;3.53;;;;;;;;;;5049754;28;20041;-84
2021/03/30 10:48:01;;;;;;;10.35;2.92;;;;;;;;;;5053199;28;20285;-84
2021/03/30 10:50:27;;;;;;;11.65;3.88;;;;;;;;;;5072069;28;20040;-83
2021/03/30 10:52:54;;;;;;;11.05;3.60;;;;;;;;;;5046723;28;20056;-83
2021/03/30 10:55:22;;;;;;;7.65;3.20;;;;;;;;;;5036785;28;20333;-83
2021/03/30 10:57:48;;;;;;;7.75;3.50;;;;;;;;;;5046570;28;20087;-83
2021/03/30 11:00:16;;;;;;;9.43;3.83;;;;;;;;;;5049466;28;20044;-82
2021/03/30 11:02:46;;;;;;;8.50;4.10;;;;;;;;;;5049252;28;20053;-84
2021/03/30 11:05:17;;;;;;;6.25;3.60;;;;;;;;;;5038548;28;20096;-83
2021/03/30 11:07:43;;;;;;;13.70;4.55;;;;;;;;;;5031742;28;20049;-82
2021/03/30 11:10:13;;;;;;;9.68;4.07;;;;;;;;;;5028136;28;20064;-83
2021/03/30 11:12:48;;;;;;;7.65;3.67;;;;;;;;;;5026129;28;20045;-83
2021/03/30 11:15:17;;;;;;;11.05;4.15;;;;;;;;;;5046170;28;20045;-82
2021/03/30 11:17:47;;;;;;;9.27;4.53;;;;;;;;;;5045648;28;20732;-83
2021/03/30 11:20:16;;;;;;;11.93;3.88;;;;;;;;;;5040207;28;20052;-82
2021/03/30 11:22:45;;;;;;;8.57;4.05;;;;;;;;;;5043769;28;20069;-83
2021/03/30 11:25:12;;;;;;;13.52;4.20;;;;;;;;;;5029836;28;20474;-82
2021/03/30 11:27:39;;;;;;;7.35;3.80;;;;;;;;;;5042252;28;20084;-83
2021/03/30 11:30:16;;;;;;;9.48;3.85;;;;;;;;;;5068742;28;20044;-82
2021/03/30 11:35:34;;;;;;;13.10;4.47;;;;;;;;;;5039932;28;20091;-83
2021/03/30 11:38:08;;;;;;;9.75;4.68;;;;;;;;;;5042013;28;20149;-83
2021/03/30 11:40:35;;;;;;;16.83;5.32;;;;;;;;;;5049798;28;20373;-83
2021/03/30 11:43:03;;;;;;;7.05;3.95;;;;;;;;;;5059979;28;20225;-84
2021/03/30 11:45:29;;;;;;;12.63;4.43;;;;;;;;;;5063133;28;20056;-83
2021/03/30 11:47:55;;;;;;;15.00;5.22;;;;;;;;;;5060279;28;20049;-83
2021/03/30 11:50:24;;;;;;;10.50;4.85;;;;;;;;;;5057247;28;20490;-83
2021/03/30 11:52:53;;;;;;;14.75;5.72;;;;;;;;;;5046798;28;20050;-84
2021/03/30 11:55:22;;;;;;;12.05;5.18;;;;;;;;;;5031535;28;20042;-84
2021/03/30 11:57:49;;;;;;;11.05;5.57;;;;;;;;;;5186419;22;20031;-83
2021/03/30 12:00:16;;;;;;;9.25;5.93;;;;;;;;;;5069007;28;20200;-84
2021/03/30 12:03:00;;;;;;;13.43;6.60;;;;;;;;;;5052518;28;20049;-85
2021/03/30 12:08:51;;;;;;;13.00;6.38;;;;;;;;;;5052122;28;20173;-84
2021/03/30 12:11:17;;;;;;;13.98;6.50;;;;;;;;;;5031239;28;20055;-85
2021/03/30 12:13:49;;;;;;;14.90;7.82;;;;;;;;;;5030513;28;20159;-83
2021/03/30 12:16:16;;;;;;;16.35;6.55;;;;;;;;;;5053966;28;20104;-83
2021/03/30 12:18:44;;;;;;;14.38;7.40;;;;;;;;;;5078218;28;20041;-84
2021/03/30 12:21:16;;;;;;;14.55;7.45;;;;;;;;;;5043669;28;20037;-84
2021/03/30 12:23:43;;;;;;;14.25;6.25;;;;;;;;;;5050274;28;20238;-84
2021/03/30 12:26:19;;;;;;;12.93;7.28;;;;;;;;;;5067288;28;20413;-84
2021/03/30 12:28:48;;;;;;;13.68;6.55;;;;;;;;;;5069125;28;20099;-84
2021/03/30 12:31:23;;;;;;;16.38;6.90;;;;;;;;;;5066924;28;20447;-83
2021/03/30 12:33:50;;;;;;;13.75;5.93;;;;;;;;;;5048825;28;20231;-79
2021/03/30 12:36:35;;;;;;;14.18;5.80;;;;;;;;;;5048331;28;20525;-81
2021/03/30 12:39:07;;;;;;;15.02;6.93;;;;;;;;;;5052384;28;20052;-79
2021/03/30 12:41:33;;;;;;;16.70;6.57;;;;;;;;;;5035172;28;20218;-79
2021/03/30 12:44:00;;;;;;;14.15;7.20;;;;;;;;;;5051664;28;20045;-79
2021/03/30 12:46:29;;;;;;;12.75;6.90;;;;;;;;;;5031111;28;20160;-79
2021/03/30 12:48:55;;;;;;;12.55;6.18;;;;;;;;;;5047659;28;20112;-79
2021/03/30 12:51:21;;;;;;;14.55;7.80;;;;;;;;;;5025911;28;20064;-79
2021/03/30 12:53:55;;;;;;;15.88;7.65;;;;;;;;;;5045066;28;20372;-79
2021/03/30 12:56:37;;;;;;;14.02;8.20;;;;;;;;;;5028837;28;20053;-79
2021/03/30 12:59:03;;;;;;;15.10;8.45;;;;;;;;;;5017965;28;20061;-78
2021/03/30 13:01:31;;;;;;;15.13;6.70;;;;;;;;;;5009361;28;20286;-79
2021/03/30 13:04:00;;;;;;;13.63;6.32;;;;;;;;;;5018440;28;20051;-82
2021/03/30 13:06:26;;;;;;;14.35;7.20;;;;;;;;;;5011782;28;20480;-81
2021/03/30 13:08:58;;;;;;;15.80;7.55;;;;;;;;;;5039403;28;20141;-82
2021/03/30 13:11:26;;;;;;;20.83;7.97;;;;;;;;;;5009317;28;20453;-81
2021/03/30 13:13:59;;;;;;;18.48;8.30;;;;;;;;;;5025385;28;20157;-81
2021/03/30 13:16:25;;;;;;;17.13;8.73;;;;;;;;;;5026050;28;20049;-81
2021/03/30 13:18:53;;;;;;;19.40;8.10;;;;;;;;;;5009883;28;20267;-81
2021/03/30 13:21:41;;;;;;;15.15;8.00;;;;;;;;;;5027657;28;20099;-81
2021/03/30 13:24:08;;;;;;;19.73;7.80;;;;;;;;;;5047462;28;20082;-81
2021/03/30 13:26:34;;;;;;;16.08;7.78;;;;;;;;;;5030952;28;20226;-81
2021/03/30 13:29:02;;;;;;;14.20;7.70;;;;;;;;;;5027899;28;20049;-81
2021/03/30 13:31:28;;;;;;;18.58;7.25;;;;;;;;;;5043442;28;20230;-81
2021/03/30 13:34:02;;;;;;;16.25;7.43;;;;;;;;;;5026848;28;20155;-81
2021/03/30 13:36:54;;;;;;;19.23;7.97;;;;;;;;;;5049467;28;20112;-82
2021/03/30 13:39:23;;;;;;;14.95;7.97;;;;;;;;;;5047997;28;20052;-80
2021/03/30 13:41:55;;;;;;;13.55;6.32;;;;;;;;;;5066490;28;20206;-81
2021/03/30 13:44:25;;;;;;;12.35;5.88;;;;;;;;;;5027410;28;20068;-81
2021/03/30 13:46:52;;;;;;;14.30;7.03;;;;;;;;;;5026089;28;20041;-81
2021/03/30 13:49:19;;;;;;;12.07;6.50;;;;;;;;;;5044411;28;20063;-81
2021/03/30 13:51:45;;;;;;;13.82;7.20;;;;;;;;;;5019958;28;20420;-81
2021/03/30 13:54:17;;;;;;;16.55;8.00;;;;;;;;;;5027577;28;20224;-81
2021/03/30 13:56:46;;;;;;;16.70;6.35;;;;;;;;;;5025998;28;20060;-81
2021/03/30 14:02:06;;;;;;;11.73;6.72;;;;;;;;;;5038379;28;20053;-80
2021/03/30 14:04:40;;;;;;;12.23;6.50;;;;;;;;;;5022418;28;20056;-81
2021/03/30 14:07:14;;;;;;;14.57;6.90;;;;;;;;;;5018527;28;20076;-81
2021/03/30 14:09:44;;;;;;;10.43;6.03;;;;;;;;;;5026260;28;20053;-82
2021/03/30 14:15:21;;;;;;;13.48;6.60;;;;;;;;;;5012320;28;20053;-80
2021/03/30 14:17:50;;;;;;;12.50;6.85;;;;;;;;;;5007131;28;20049;-80
2021/03/30 14:20:16;;;;;;;15.80;6.75;;;;;;;;;;5008113;28;20116;-83
2021/03/30 14:22:47;;;;;;;15.88;7.03;;;;;;;;;;5022266;28;20103;-80
2021/03/30 14:25:16;;;;;;;14.23;7.35;;;;;;;;;;5047877;28;20149;-81
2021/03/30 14:27:44;;;;;;;14.75;7.15;;;;;;;;;;5028447;28;20053;-80
2021/03/30 14:30:29;;;;;;;21.77;7.93;;;;;;;;;;5028874;28;20045;-80
2021/03/30 14:32:56;;;;;;;14.88;7.00;;;;;;;;;;5031330;28;20420;-80
2021/03/30 14:35:24;;;;;;;14.35;7.40;;;;;;;;;;5029468;28;20073;-79
2021/03/30 14:38:18;;;;;;;12.82;6.93;;;;;;;;;;5005295;28;20179;-80
2021/03/30 14:40:50;;;;;;;15.60;6.40;;;;;;;;;;5030436;28;20052;-81
2021/03/30 14:44:01;;;;;;;17.17;7.00;;;;;;;;;;5026259;28;20242;-80
2021/03/30 14:52:51;;;;;;;14.40;6.13;;;;;;;;;;5030052;28;20198;-80
2021/03/30 14:58:01;;;;;;;16.83;7.22;;;;;;;;;;5061211;28;20044;-81
2021/03/30 15:03:23;;;;;;;16.92;7.07;;;;;;;;;;5082958;28;20055;-81
2021/03/30 15:05:50;;;;;;;16.10;6.70;;;;;;;;;;5065064;28;20091;-80
2021/03/30 15:08:19;;;;;;;13.98;6.20;;;;;;;;;;5056366;28;20059;-81
2021/03/30 15:10:46;;;;;;;15.70;6.93;;;;;;;;;;5045434;28;20582;-81
2021/03/30 15:13:19;;;;;;;12.75;6.65;;;;;;;;;;5075031;28;20044;-81
2021/03/30 15:15:46;;;;;;;21.88;8.93;;;;;;;;;;5055694;28;20048;-82
2021/03/30 15:18:12;;;;;;;16.17;6.63;;;;;;;;;;5069817;28;20071;-80